sensor_id;sensor_type;location;lat;lon;timestamp;pressure;altitude;pressure_sealevel;temperature;humidity
12358;BME280;6243;51.244;6.774;2024-02-14T00:00:52;115150.97;;;-141.28;43.48
12358;BME280;6243;51.244;6.774;2024-02-14T00:03:17;115150.97;;;-141.28;43.80
12358;BME280;6243;51.244;6.774;2024-02-14T00:05:43;115150.97;;;-141.28;43.30
12358;BME280;6243;51.244;6.774;2024-02-14T00:08:08;115150.97;;;-141.28;43.90
12358;BME280;6243;51.244;6.774;2024-02-14T00:10:34;115150.97;;;-141.28;44.93
12358;BME280;6243;51.244;6.774;2024-02-14T00:12:59;115150.97;;;-141.28;44.58
12358;BME280;6243;51.244;6.774;2024-02-14T00:15:25;115150.97;;;-141.28;44.59
12358;BME280;6243;51.244;6.774;2024-02-14T00:17:51;115150.97;;;-141.28;44.50
12358;BME280;6243;51.244;6.774;2024-02-14T00:20:17;115150.97;;;-141.28;44.91
12358;BME280;6243;51.244;6.774;2024-02-14T00:22:43;115150.97;;;-141.28;45.38
12358;BME280;6243;51.244;6.774;2024-02-14T00:25:08;115150.97;;;-141.28;44.93
12358;BME280;6243;51.244;6.774;2024-02-14T00:27:34;115150.97;;;-141.28;44.50
12358;BME280;6243;51.244;6.774;2024-02-14T00:29:59;115150.97;;;-141.28;44.76
12358;BME280;6243;51.244;6.774;2024-02-14T00:32:25;115150.97;;;-141.28;44.59
12358;BME280;6243;51.244;6.774;2024-02-14T00:34:52;115150.97;;;-141.28;44.85
12358;BME280;6243;51.244;6.774;2024-02-14T00:37:18;115150.97;;;-141.28;44.50
12358;BME280;6243;51.244;6.774;2024-02-14T00:39:44;115150.97;;;-141.28;44.68
12358;BME280;6243;51.244;6.774;2024-02-14T00:42:09;115150.97;;;-141.28;44.49
12358;BME280;6243;51.244;6.774;2024-02-14T00:44:35;115150.97;;;-141.28;44.93
12358;BME280;6243;51.244;6.774;2024-02-14T00:47:00;115150.97;;;-141.28;44.92
12358;BME280;6243;51.244;6.774;2024-02-14T00:49:26;115150.97;;;-141.28;45.89
12358;BME280;6243;51.244;6.774;2024-02-14T00:51:53;115150.97;;;-141.28;45.85
12358;BME280;6243;51.244;6.774;2024-02-14T00:54:18;115150.97;;;-141.28;45.40
12358;BME280;6243;51.244;6.774;2024-02-14T00:56:44;115150.97;;;-141.28;45.83
12358;BME280;6243;51.244;6.774;2024-02-14T00:59:09;115150.97;;;-141.28;45.48
12358;BME280;6243;51.244;6.774;2024-02-14T01:01:35;115150.97;;;-141.28;45.11
12358;BME280;6243;51.244;6.774;2024-02-14T01:04:00;115150.97;;;-141.28;44.89
12358;BME280;6243;51.244;6.774;2024-02-14T01:06:26;115150.97;;;-141.28;45.08
12358;BME280;6243;51.244;6.774;2024-02-14T01:08:53;115150.97;;;-141.28;45.21
12358;BME280;6243;51.244;6.774;2024-02-14T01:11:18;115150.97;;;-141.28;45.20
12358;BME280;6243;51.244;6.774;2024-02-14T01:13:44;115150.97;;;-141.28;45.20
12358;BME280;6243;51.244;6.774;2024-02-14T01:16:09;115150.97;;;-141.28;45.20
12358;BME280;6243;51.244;6.774;2024-02-14T01:18:35;115150.97;;;-141.28;44.98
12358;BME280;6243;51.244;6.774;2024-02-14T01:21:00;115150.97;;;-141.28;44.90
12358;BME280;6243;51.244;6.774;2024-02-14T01:23:27;115150.97;;;-141.28;44.75
12358;BME280;6243;51.244;6.774;2024-02-14T01:25:54;115150.97;;;-141.28;44.74
12358;BME280;6243;51.244;6.774;2024-02-14T01:28:19;115150.97;;;-141.28;44.18
12358;BME280;6243;51.244;6.774;2024-02-14T01:30:45;115150.97;;;-141.28;44.74
12358;BME280;6243;51.244;6.774;2024-02-14T01:33:10;115150.97;;;-141.28;44.89
12358;BME280;6243;51.244;6.774;2024-02-14T01:35:36;115150.97;;;-141.28;44.78
12358;BME280;6243;51.244;6.774;2024-02-14T01:38:01;115150.97;;;-141.28;44.93
12358;BME280;6243;51.244;6.774;2024-02-14T01:40:27;115150.97;;;-141.28;45.11
12358;BME280;6243;51.244;6.774;2024-02-14T01:42:54;115150.97;;;-141.28;45.07
12358;BME280;6243;51.244;6.774;2024-02-14T01:45:19;115150.97;;;-141.28;45.93
12358;BME280;6243;51.244;6.774;2024-02-14T01:47:45;115150.97;;;-141.28;45.77
12358;BME280;6243;51.244;6.774;2024-02-14T01:50:10;115150.97;;;-141.28;45.26
12358;BME280;6243;51.244;6.774;2024-02-14T01:52:36;115150.97;;;-141.28;45.46
12358;BME280;6243;51.244;6.774;2024-02-14T01:55:05;115150.97;;;-141.28;45.39
12358;BME280;6243;51.244;6.774;2024-02-14T01:57:30;115150.97;;;-141.28;45.41
12358;BME280;6243;51.244;6.774;2024-02-14T01:59:58;115150.97;;;-141.28;45.78
12358;BME280;6243;51.244;6.774;2024-02-14T02:02:26;115150.97;;;-141.28;45.62
12358;BME280;6243;51.244;6.774;2024-02-14T02:04:52;115150.97;;;-141.28;45.54
12358;BME280;6243;51.244;6.774;2024-02-14T02:07:17;115150.97;;;-141.28;46.07
12358;BME280;6243;51.244;6.774;2024-02-14T02:09:43;115150.97;;;-141.28;45.54
12358;BME280;6243;51.244;6.774;2024-02-14T02:12:09;115150.97;;;-141.28;46.25
12358;BME280;6243;51.244;6.774;2024-02-14T02:14:34;115150.97;;;-141.28;45.99
12358;BME280;6243;51.244;6.774;2024-02-14T02:17:01;115150.97;;;-141.28;45.52
12358;BME280;6243;51.244;6.774;2024-02-14T02:19:27;115150.97;;;-141.28;46.45
12358;BME280;6243;51.244;6.774;2024-02-14T02:21:52;115150.97;;;-141.28;46.55
12358;BME280;6243;51.244;6.774;2024-02-14T02:24:19;115150.97;;;-141.28;45.91
12358;BME280;6243;51.244;6.774;2024-02-14T02:26:45;115150.97;;;-141.28;45.59
12358;BME280;6243;51.244;6.774;2024-02-14T02:29:10;115150.97;;;-141.28;45.81
12358;BME280;6243;51.244;6.774;2024-02-14T02:31:36;115150.97;;;-141.28;45.18
12358;BME280;6243;51.244;6.774;2024-02-14T02:34:01;115150.97;;;-141.28;45.64
12358;BME280;6243;51.244;6.774;2024-02-14T02:36:27;115150.97;;;-141.28;45.76
12358;BME280;6243;51.244;6.774;2024-02-14T02:38:52;115150.97;;;-141.28;45.51
12358;BME280;6243;51.244;6.774;2024-02-14T02:41:19;115150.97;;;-141.28;45.57
12358;BME280;6243;51.244;6.774;2024-02-14T02:43:45;115150.97;;;-141.28;45.73
12358;BME280;6243;51.244;6.774;2024-02-14T02:46:10;115150.97;;;-141.28;45.94
12358;BME280;6243;51.244;6.774;2024-02-14T02:48:36;115150.97;;;-141.28;45.73
12358;BME280;6243;51.244;6.774;2024-02-14T02:51:01;115150.97;;;-141.28;45.80
12358;BME280;6243;51.244;6.774;2024-02-14T02:53:27;115150.97;;;-141.28;45.57
12358;BME280;6243;51.244;6.774;2024-02-14T02:55:52;115150.97;;;-141.28;45.05
12358;BME280;6243;51.244;6.774;2024-02-14T02:58:19;115150.97;;;-141.28;45.56
12358;BME280;6243;51.244;6.774;2024-02-14T03:00:45;115150.97;;;-141.28;46.09
12358;BME280;6243;51.244;6.774;2024-02-14T03:03:10;115150.97;;;-141.28;46.39
12358;BME280;6243;51.244;6.774;2024-02-14T03:05:36;115150.97;;;-141.28;45.89
12358;BME280;6243;51.244;6.774;2024-02-14T03:08:01;115150.97;;;-141.28;47.02
12358;BME280;6243;51.244;6.774;2024-02-14T03:10:27;115150.97;;;-141.28;47.11
12358;BME280;6243;51.244;6.774;2024-02-14T03:12:52;115150.97;;;-141.28;47.29
12358;BME280;6243;51.244;6.774;2024-02-14T03:15:19;115150.97;;;-141.28;47.39
12358;BME280;6243;51.244;6.774;2024-02-14T03:17:45;115150.97;;;-141.28;47.51
12358;BME280;6243;51.244;6.774;2024-02-14T03:20:11;115150.97;;;-141.28;47.46
12358;BME280;6243;51.244;6.774;2024-02-14T03:22:37;115150.97;;;-141.28;48.23
12358;BME280;6243;51.244;6.774;2024-02-14T03:25:02;115150.97;;;-141.28;47.60
12358;BME280;6243;51.244;6.774;2024-02-14T03:27:28;115150.97;;;-141.28;46.89
12358;BME280;6243;51.244;6.774;2024-02-14T03:29:53;115150.97;;;-141.28;47.61
12358;BME280;6243;51.244;6.774;2024-02-14T03:32:20;115150.97;;;-141.28;47.54
12358;BME280;6243;51.244;6.774;2024-02-14T03:34:46;115150.97;;;-141.28;47.11
12358;BME280;6243;51.244;6.774;2024-02-14T03:37:11;115150.97;;;-141.28;46.92
12358;BME280;6243;51.244;6.774;2024-02-14T03:39:37;115150.97;;;-141.28;46.46
12358;BME280;6243;51.244;6.774;2024-02-14T03:42:03;115150.97;;;-141.28;46.70
12358;BME280;6243;51.244;6.774;2024-02-14T03:44:29;115150.97;;;-141.28;46.66
12358;BME280;6243;51.244;6.774;2024-02-14T03:46:54;115150.97;;;-141.28;47.09
12358;BME280;6243;51.244;6.774;2024-02-14T03:49:21;115150.97;;;-141.28;47.07
12358;BME280;6243;51.244;6.774;2024-02-14T03:51:47;115150.97;;;-141.28;46.09
12358;BME280;6243;51.244;6.774;2024-02-14T03:54:12;115150.97;;;-141.28;46.77
12358;BME280;6243;51.244;6.774;2024-02-14T03:56:38;115150.97;;;-141.28;46.97
12358;BME280;6243;51.244;6.774;2024-02-14T03:59:03;115150.97;;;-141.28;46.57
12358;BME280;6243;51.244;6.774;2024-02-14T04:01:29;115150.97;;;-141.28;47.41
12358;BME280;6243;51.244;6.774;2024-02-14T04:03:54;115150.97;;;-141.28;46.64
12358;BME280;6243;51.244;6.774;2024-02-14T04:06:21;115150.97;;;-141.28;46.89
12358;BME280;6243;51.244;6.774;2024-02-14T04:08:46;115150.97;;;-141.28;46.58
12358;BME280;6243;51.244;6.774;2024-02-14T04:11:12;115150.97;;;-141.28;46.87
12358;BME280;6243;51.244;6.774;2024-02-14T04:13:37;115150.97;;;-141.28;46.45
12358;BME280;6243;51.244;6.774;2024-02-14T04:16:04;115150.97;;;-141.28;46.79
12358;BME280;6243;51.244;6.774;2024-02-14T04:18:29;115150.97;;;-141.28;46.42
12358;BME280;6243;51.244;6.774;2024-02-14T04:20:55;115150.97;;;-141.28;46.42
12358;BME280;6243;51.244;6.774;2024-02-14T04:23:21;115150.97;;;-141.28;47.26
12358;BME280;6243;51.244;6.774;2024-02-14T04:25:47;115150.97;;;-141.28;46.74
12358;BME280;6243;51.244;6.774;2024-02-14T04:28:12;115150.97;;;-141.28;46.48
12358;BME280;6243;51.244;6.774;2024-02-14T04:30:38;115150.97;;;-141.28;46.02
12358;BME280;6243;51.244;6.774;2024-02-14T04:33:04;115150.97;;;-141.28;46.66
12358;BME280;6243;51.244;6.774;2024-02-14T04:35:29;115150.97;;;-141.28;46.78
12358;BME280;6243;51.244;6.774;2024-02-14T04:37:55;115150.97;;;-141.28;46.97
12358;BME280;6243;51.244;6.774;2024-02-14T04:40:22;115150.97;;;-141.28;46.46
12358;BME280;6243;51.244;6.774;2024-02-14T04:42:47;115150.97;;;-141.28;46.44
12358;BME280;6243;51.244;6.774;2024-02-14T04:45:13;115150.97;;;-141.28;46.50
12358;BME280;6243;51.244;6.774;2024-02-14T04:47:38;115150.97;;;-141.28;46.74
12358;BME280;6243;51.244;6.774;2024-02-14T04:50:04;115150.97;;;-141.28;46.50
12358;BME280;6243;51.244;6.774;2024-02-14T04:52:30;115150.97;;;-141.28;46.22
12358;BME280;6243;51.244;6.774;2024-02-14T04:54:55;115150.97;;;-141.28;47.45
12358;BME280;6243;51.244;6.774;2024-02-14T04:57:23;115150.97;;;-141.28;46.65
12358;BME280;6243;51.244;6.774;2024-02-14T04:59:48;115150.97;;;-141.28;46.86
12358;BME280;6243;51.244;6.774;2024-02-14T05:02:14;115150.97;;;-141.28;46.47
12358;BME280;6243;51.244;6.774;2024-02-14T05:04:40;115150.97;;;-141.28;46.84
12358;BME280;6243;51.244;6.774;2024-02-14T05:07:05;115150.97;;;-141.28;46.85
12358;BME280;6243;51.244;6.774;2024-02-14T05:09:31;115150.97;;;-141.28;46.41
12358;BME280;6243;51.244;6.774;2024-02-14T05:11:57;115150.97;;;-141.28;46.46
12358;BME280;6243;51.244;6.774;2024-02-14T05:14:24;115150.97;;;-141.28;46.26
12358;BME280;6243;51.244;6.774;2024-02-14T05:16:52;115150.97;;;-141.28;46.81
12358;BME280;6243;51.244;6.774;2024-02-14T05:19:17;115150.97;;;-141.28;46.95
12358;BME280;6243;51.244;6.774;2024-02-14T05:21:43;115150.97;;;-141.28;47.46
12358;BME280;6243;51.244;6.774;2024-02-14T05:24:08;115150.97;;;-141.28;47.26
12358;BME280;6243;51.244;6.774;2024-02-14T05:26:34;115150.97;;;-141.28;47.85
12358;BME280;6243;51.244;6.774;2024-02-14T05:28:59;115150.97;;;-141.28;47.51
12358;BME280;6243;51.244;6.774;2024-02-14T05:31:42;115150.97;;;-141.28;48.09
12358;BME280;6243;51.244;6.774;2024-02-14T05:34:08;115150.97;;;-141.28;48.63
12358;BME280;6243;51.244;6.774;2024-02-14T05:36:33;115150.97;;;-141.28;48.04
12358;BME280;6243;51.244;6.774;2024-02-14T05:38:59;115150.97;;;-141.28;48.16
12358;BME280;6243;51.244;6.774;2024-02-14T05:41:24;115150.97;;;-141.28;48.34
12358;BME280;6243;51.244;6.774;2024-02-14T05:43:50;115150.97;;;-141.28;48.57
12358;BME280;6243;51.244;6.774;2024-02-14T05:46:15;115150.97;;;-141.28;48.85
12358;BME280;6243;51.244;6.774;2024-02-14T05:48:42;115150.97;;;-141.28;48.73
12358;BME280;6243;51.244;6.774;2024-02-14T05:51:08;115150.97;;;-141.28;48.25
12358;BME280;6243;51.244;6.774;2024-02-14T05:53:33;115150.97;;;-141.28;49.12
12358;BME280;6243;51.244;6.774;2024-02-14T05:55:59;115150.97;;;-141.28;48.55
12358;BME280;6243;51.244;6.774;2024-02-14T05:58:24;115150.97;;;-141.28;48.51
12358;BME280;6243;51.244;6.774;2024-02-14T06:00:50;115150.97;;;-141.28;48.98
12358;BME280;6243;51.244;6.774;2024-02-14T06:03:15;115150.97;;;-141.28;48.95
12358;BME280;6243;51.244;6.774;2024-02-14T06:05:42;115150.97;;;-141.28;49.41
12358;BME280;6243;51.244;6.774;2024-02-14T06:08:08;115150.97;;;-141.28;49.25
12358;BME280;6243;51.244;6.774;2024-02-14T06:10:33;115150.97;;;-141.28;47.91
12358;BME280;6243;51.244;6.774;2024-02-14T06:12:58;115150.97;;;-141.28;48.57
12358;BME280;6243;51.244;6.774;2024-02-14T06:15:24;115150.97;;;-141.28;48.14
12358;BME280;6243;51.244;6.774;2024-02-14T06:17:49;115150.97;;;-141.28;48.18
12358;BME280;6243;51.244;6.774;2024-02-14T06:20:15;115150.97;;;-141.28;48.19
12358;BME280;6243;51.244;6.774;2024-02-14T06:22:42;115150.97;;;-141.28;48.53
12358;BME280;6243;51.244;6.774;2024-02-14T06:25:07;115150.97;;;-141.28;49.11
12358;BME280;6243;51.244;6.774;2024-02-14T06:27:33;115150.97;;;-141.28;48.37
12358;BME280;6243;51.244;6.774;2024-02-14T06:29:58;115150.97;;;-141.28;49.15
12358;BME280;6243;51.244;6.774;2024-02-14T06:32:24;115150.97;;;-141.28;48.30
12358;BME280;6243;51.244;6.774;2024-02-14T06:34:49;115150.97;;;-141.28;48.80
12358;BME280;6243;51.244;6.774;2024-02-14T06:37:15;115150.97;;;-141.28;48.78
12358;BME280;6243;51.244;6.774;2024-02-14T06:39:42;115150.97;;;-141.28;48.73
12358;BME280;6243;51.244;6.774;2024-02-14T06:42:07;115150.97;;;-141.28;48.73
12358;BME280;6243;51.244;6.774;2024-02-14T06:44:33;115150.97;;;-141.28;48.24
12358;BME280;6243;51.244;6.774;2024-02-14T06:46:58;115150.97;;;-141.28;49.22
12358;BME280;6243;51.244;6.774;2024-02-14T06:49:24;115150.97;;;-141.28;48.30
12358;BME280;6243;51.244;6.774;2024-02-14T06:51:49;115150.97;;;-141.28;48.53
12358;BME280;6243;51.244;6.774;2024-02-14T06:54:15;115150.97;;;-141.28;48.47
12358;BME280;6243;51.244;6.774;2024-02-14T06:56:42;115150.97;;;-141.28;48.35
12358;BME280;6243;51.244;6.774;2024-02-14T06:59:07;115150.97;;;-141.28;48.98
12358;BME280;6243;51.244;6.774;2024-02-14T07:01:33;115150.97;;;-141.28;47.71
12358;BME280;6243;51.244;6.774;2024-02-14T07:03:59;115150.97;;;-141.28;48.08
12358;BME280;6243;51.244;6.774;2024-02-14T07:06:24;115150.97;;;-141.28;48.55
12358;BME280;6243;51.244;6.774;2024-02-14T07:08:50;115150.97;;;-141.28;47.96
12358;BME280;6243;51.244;6.774;2024-02-14T07:11:17;115150.97;;;-141.28;48.78
12358;BME280;6243;51.244;6.774;2024-02-14T07:13:44;115150.97;;;-141.28;48.43
12358;BME280;6243;51.244;6.774;2024-02-14T07:16:09;115150.97;;;-141.28;48.50
12358;BME280;6243;51.244;6.774;2024-02-14T07:18:35;115150.97;;;-141.28;48.05
12358;BME280;6243;51.244;6.774;2024-02-14T07:21:01;115150.97;;;-141.28;48.74
12358;BME280;6243;51.244;6.774;2024-02-14T07:23:26;115150.97;;;-141.28;48.58
12358;BME280;6243;51.244;6.774;2024-02-14T07:25:52;115150.97;;;-141.28;48.03
12358;BME280;6243;51.244;6.774;2024-02-14T07:28:18;115150.97;;;-141.28;48.10
12358;BME280;6243;51.244;6.774;2024-02-14T07:30:45;115150.97;;;-141.28;48.40
12358;BME280;6243;51.244;6.774;2024-02-14T07:33:10;115150.97;;;-141.28;47.46
12358;BME280;6243;51.244;6.774;2024-02-14T07:35:36;115150.97;;;-141.28;47.70
12358;BME280;6243;51.244;6.774;2024-02-14T07:38:01;115150.97;;;-141.28;47.42
12358;BME280;6243;51.244;6.774;2024-02-14T07:40:27;115150.97;;;-141.28;47.22
12358;BME280;6243;51.244;6.774;2024-02-14T07:42:53;115150.97;;;-141.28;47.63
12358;BME280;6243;51.244;6.774;2024-02-14T07:45:18;115150.97;;;-141.28;47.34
12358;BME280;6243;51.244;6.774;2024-02-14T07:47:45;115150.97;;;-141.28;47.73
12358;BME280;6243;51.244;6.774;2024-02-14T07:50:10;115150.97;;;-141.28;48.07
12358;BME280;6243;51.244;6.774;2024-02-14T07:52:36;115150.97;;;-141.28;47.71
12358;BME280;6243;51.244;6.774;2024-02-14T07:55:02;115150.97;;;-141.28;47.61
12358;BME280;6243;51.244;6.774;2024-02-14T07:57:27;115150.97;;;-141.28;47.19
12358;BME280;6243;51.244;6.774;2024-02-14T07:59:53;115150.97;;;-141.28;46.99
12358;BME280;6243;51.244;6.774;2024-02-14T08:02:19;115150.97;;;-141.28;46.71
12358;BME280;6243;51.244;6.774;2024-02-14T08:04:46;115150.97;;;-141.28;46.80
12358;BME280;6243;51.244;6.774;2024-02-14T08:07:11;115150.97;;;-141.28;47.61
12358;BME280;6243;51.244;6.774;2024-02-14T08:09:37;115150.97;;;-141.28;47.67
12358;BME280;6243;51.244;6.774;2024-02-14T08:12:03;115150.97;;;-141.28;48.03
12358;BME280;6243;51.244;6.774;2024-02-14T08:14:28;115150.97;;;-141.28;47.45
12358;BME280;6243;51.244;6.774;2024-02-14T08:16:54;115150.97;;;-141.28;47.31
12358;BME280;6243;51.244;6.774;2024-02-14T08:19:20;115150.97;;;-141.28;47.57
12358;BME280;6243;51.244;6.774;2024-02-14T08:21:47;115150.97;;;-141.28;47.87
12358;BME280;6243;51.244;6.774;2024-02-14T08:24:12;115150.97;;;-141.28;47.64
12358;BME280;6243;51.244;6.774;2024-02-14T08:26:37;115150.97;;;-141.28;48.61
12358;BME280;6243;51.244;6.774;2024-02-14T08:29:03;115150.97;;;-141.28;47.80
12358;BME280;6243;51.244;6.774;2024-02-14T08:31:29;115150.97;;;-141.28;48.15
12358;BME280;6243;51.244;6.774;2024-02-14T08:33:54;115150.97;;;-141.28;47.65
12358;BME280;6243;51.244;6.774;2024-02-14T08:36:20;115150.97;;;-141.28;46.96
12358;BME280;6243;51.244;6.774;2024-02-14T08:38:47;115150.97;;;-141.28;46.98
12358;BME280;6243;51.244;6.774;2024-02-14T08:41:12;115150.97;;;-141.28;47.24
12358;BME280;6243;51.244;6.774;2024-02-14T08:43:38;115150.97;;;-141.28;47.90
12358;BME280;6243;51.244;6.774;2024-02-14T08:46:09;115150.97;;;-141.28;46.89
12358;BME280;6243;51.244;6.774;2024-02-14T08:48:35;115150.97;;;-141.28;47.46
12358;BME280;6243;51.244;6.774;2024-02-14T08:51:00;115150.97;;;-141.28;46.73
12358;BME280;6243;51.244;6.774;2024-02-14T08:53:26;115150.97;;;-141.28;47.31
12358;BME280;6243;51.244;6.774;2024-02-14T08:55:53;115150.97;;;-141.28;46.92
12358;BME280;6243;51.244;6.774;2024-02-14T08:58:18;115150.97;;;-141.28;47.07
12358;BME280;6243;51.244;6.774;2024-02-14T09:00:45;115150.97;;;-141.28;47.81
12358;BME280;6243;51.244;6.774;2024-02-14T09:03:10;115150.97;;;-141.28;47.62
12358;BME280;6243;51.244;6.774;2024-02-14T09:05:36;115150.97;;;-141.28;47.85
12358;BME280;6243;51.244;6.774;2024-02-14T09:08:02;115150.97;;;-141.28;47.68
12358;BME280;6243;51.244;6.774;2024-02-14T09:10:27;115150.97;;;-141.28;48.20
12358;BME280;6243;51.244;6.774;2024-02-14T09:12:54;115150.97;;;-141.28;48.07
12358;BME280;6243;51.244;6.774;2024-02-14T09:15:20;115150.97;;;-141.28;47.22
12358;BME280;6243;51.244;6.774;2024-02-14T09:17:45;115150.97;;;-141.28;46.74
12358;BME280;6243;51.244;6.774;2024-02-14T09:20:11;115150.97;;;-141.28;46.95
12358;BME280;6243;51.244;6.774;2024-02-14T09:22:37;115150.97;;;-141.28;46.67
12358;BME280;6243;51.244;6.774;2024-02-14T09:25:03;115150.97;;;-141.28;46.21
12358;BME280;6243;51.244;6.774;2024-02-14T09:27:28;115150.97;;;-141.28;46.56
12358;BME280;6243;51.244;6.774;2024-02-14T09:29:55;115150.97;;;-141.28;46.65
12358;BME280;6243;51.244;6.774;2024-02-14T09:32:21;115150.97;;;-141.28;46.87
12358;BME280;6243;51.244;6.774;2024-02-14T09:34:46;115150.97;;;-141.28;45.97
12358;BME280;6243;51.244;6.774;2024-02-14T09:37:12;115150.97;;;-141.28;45.99
12358;BME280;6243;51.244;6.774;2024-02-14T09:39:37;115150.97;;;-141.28;46.31
12358;BME280;6243;51.244;6.774;2024-02-14T09:42:06;115150.97;;;-141.28;46.11
12358;BME280;6243;51.244;6.774;2024-02-14T09:44:34;115150.97;;;-141.28;46.10
12358;BME280;6243;51.244;6.774;2024-02-14T09:47:02;115150.97;;;-141.28;45.79
12358;BME280;6243;51.244;6.774;2024-02-14T09:49:28;115150.97;;;-141.28;45.84
12358;BME280;6243;51.244;6.774;2024-02-14T09:51:55;115150.97;;;-141.28;45.93
12358;BME280;6243;51.244;6.774;2024-02-14T09:54:22;115150.97;;;-141.28;45.44
12358;BME280;6243;51.244;6.774;2024-02-14T09:56:48;115150.97;;;-141.28;45.94
12358;BME280;6243;51.244;6.774;2024-02-14T09:59:15;115150.97;;;-141.28;45.68
12358;BME280;6243;51.244;6.774;2024-02-14T10:01:41;115150.97;;;-141.28;45.74
12358;BME280;6243;51.244;6.774;2024-02-14T10:04:07;115150.97;;;-141.28;46.14
12358;BME280;6243;51.244;6.774;2024-02-14T10:06:33;115150.97;;;-141.28;45.57
12358;BME280;6243;51.244;6.774;2024-02-14T10:08:59;115150.97;;;-141.28;45.93
12358;BME280;6243;51.244;6.774;2024-02-14T10:11:24;115150.97;;;-141.28;45.93
12358;BME280;6243;51.244;6.774;2024-02-14T10:13:50;115150.97;;;-141.28;45.70
12358;BME280;6243;51.244;6.774;2024-02-14T10:16:16;115150.97;;;-141.28;45.65
12358;BME280;6243;51.244;6.774;2024-02-14T10:18:42;115150.97;;;-141.28;45.90
12358;BME280;6243;51.244;6.774;2024-02-14T10:21:14;115150.97;;;-141.28;45.76
12358;BME280;6243;51.244;6.774;2024-02-14T10:23:40;115150.97;;;-141.28;45.43
12358;BME280;6243;51.244;6.774;2024-02-14T10:26:05;115150.97;;;-141.28;45.96
12358;BME280;6243;51.244;6.774;2024-02-14T10:28:32;115150.97;;;-141.28;45.75
12358;BME280;6243;51.244;6.774;2024-02-14T10:30:58;115150.97;;;-141.28;45.83
12358;BME280;6243;51.244;6.774;2024-02-14T10:33:23;115150.97;;;-141.28;45.68
12358;BME280;6243;51.244;6.774;2024-02-14T10:35:50;115150.97;;;-141.28;47.10
12358;BME280;6243;51.244;6.774;2024-02-14T10:38:19;115150.97;;;-141.28;47.14
12358;BME280;6243;51.244;6.774;2024-02-14T10:40:47;115150.97;;;-141.28;47.28
12358;BME280;6243;51.244;6.774;2024-02-14T10:43:12;115150.97;;;-141.28;46.97
12358;BME280;6243;51.244;6.774;2024-02-14T10:45:38;115150.97;;;-141.28;47.39
12358;BME280;6243;51.244;6.774;2024-02-14T10:48:04;115150.97;;;-141.28;47.29
12358;BME280;6243;51.244;6.774;2024-02-14T10:50:32;115150.97;;;-141.28;46.87
12358;BME280;6243;51.244;6.774;2024-02-14T10:53:00;115150.97;;;-141.28;47.58
12358;BME280;6243;51.244;6.774;2024-02-14T10:55:30;115150.97;;;-141.28;47.63
12358;BME280;6243;51.244;6.774;2024-02-14T10:57:57;115150.97;;;-141.28;47.68
12358;BME280;6243;51.244;6.774;2024-02-14T11:00:23;115150.97;;;-141.28;47.02
12358;BME280;6243;51.244;6.774;2024-02-14T11:16:13;115150.97;;;-141.28;46.49
12358;BME280;6243;51.244;6.774;2024-02-14T11:18:38;115150.97;;;-141.28;45.68
12358;BME280;6243;51.244;6.774;2024-02-14T11:21:04;115150.97;;;-141.28;45.70
12358;BME280;6243;51.244;6.774;2024-02-14T11:23:30;115150.97;;;-141.28;45.94
12358;BME280;6243;51.244;6.774;2024-02-14T11:26:00;115150.97;;;-141.28;46.27
12358;BME280;6243;51.244;6.774;2024-02-14T11:28:25;115150.97;;;-141.28;45.73
12358;BME280;6243;51.244;6.774;2024-02-14T11:30:51;115150.97;;;-141.28;45.56
12358;BME280;6243;51.244;6.774;2024-02-14T11:33:20;115150.97;;;-141.28;46.69
12358;BME280;6243;51.244;6.774;2024-02-14T11:35:47;115150.97;;;-141.28;46.36
12358;BME280;6243;51.244;6.774;2024-02-14T11:38:12;115150.97;;;-141.28;45.92
12358;BME280;6243;51.244;6.774;2024-02-14T11:40:38;115150.97;;;-141.28;46.14
12358;BME280;6243;51.244;6.774;2024-02-14T11:43:04;115150.97;;;-141.28;45.50
12358;BME280;6243;51.244;6.774;2024-02-14T11:45:30;115150.97;;;-141.28;46.40
12358;BME280;6243;51.244;6.774;2024-02-14T11:47:55;115150.97;;;-141.28;46.11
12358;BME280;6243;51.244;6.774;2024-02-14T11:50:22;115150.97;;;-141.28;45.31
12358;BME280;6243;51.244;6.774;2024-02-14T11:52:48;115150.97;;;-141.28;46.21
12358;BME280;6243;51.244;6.774;2024-02-14T11:55:17;115150.97;;;-141.28;46.20
12358;BME280;6243;51.244;6.774;2024-02-14T11:57:43;115150.97;;;-141.28;46.02
12358;BME280;6243;51.244;6.774;2024-02-14T12:00:09;115150.97;;;-141.28;45.36
12358;BME280;6243;51.244;6.774;2024-02-14T12:02:34;115150.97;;;-141.28;45.40
12358;BME280;6243;51.244;6.774;2024-02-14T12:05:00;115150.97;;;-141.28;45.44
12358;BME280;6243;51.244;6.774;2024-02-14T12:07:27;115150.97;;;-141.28;45.41
12358;BME280;6243;51.244;6.774;2024-02-14T12:09:55;115150.97;;;-141.28;45.28
12358;BME280;6243;51.244;6.774;2024-02-14T12:12:20;115150.97;;;-141.28;45.88
12358;BME280;6243;51.244;6.774;2024-02-14T12:14:46;115150.97;;;-141.28;46.29
12358;BME280;6243;51.244;6.774;2024-02-14T12:17:11;115150.97;;;-141.28;46.76
12358;BME280;6243;51.244;6.774;2024-02-14T12:19:37;115150.97;;;-141.28;46.38
12358;BME280;6243;51.244;6.774;2024-02-14T12:22:03;115150.97;;;-141.28;46.89
12358;BME280;6243;51.244;6.774;2024-02-14T12:24:35;115150.97;;;-141.28;46.59
12358;BME280;6243;51.244;6.774;2024-02-14T12:27:00;115150.97;;;-141.28;46.48
12358;BME280;6243;51.244;6.774;2024-02-14T12:29:26;115150.97;;;-141.28;46.99
12358;BME280;6243;51.244;6.774;2024-02-14T12:31:52;115150.97;;;-141.28;47.04
12358;BME280;6243;51.244;6.774;2024-02-14T12:34:17;115150.97;;;-141.28;47.21
12358;BME280;6243;51.244;6.774;2024-02-14T12:36:43;115150.97;;;-141.28;48.78
12358;BME280;6243;51.244;6.774;2024-02-14T12:39:08;115150.97;;;-141.28;48.56
12358;BME280;6243;51.244;6.774;2024-02-14T12:41:35;115150.97;;;-141.28;48.10
12358;BME280;6243;51.244;6.774;2024-02-14T12:44:01;115150.97;;;-141.28;47.63
12358;BME280;6243;51.244;6.774;2024-02-14T12:46:27;115150.97;;;-141.28;48.24